Time;durP1;ratioP1;P1;durP2;ratioP2;P2;SDS_P1;SDS_P2;PMS_P1;PMS_P2;Temp;Humidity;BMP_temperature;BMP_pressure;BME280_temperature;BME280_humidity;BME280_pressure;Samples;Min_cycle;Max_cycle;Signal;HPM_P1;HPM_P2
2023/09/05 00:00:18;;;;;;;2.72;1.60;;;;;;;;;;1027570;28;20029;-74
2023/09/05 00:00:48;;;;;;;2.55;1.55;;;;;;;;;;1030850;28;20110;-73
2023/09/05 00:01:18;;;;;;;2.95;1.50;;;;;;;;;;1027056;28;20018;-74
2023/09/05 00:01:49;;;;;;;3.50;1.77;;;;;;;;;;1030046;28;20007;-73
2023/09/05 00:02:20;;;;;;;2.50;1.88;;;;;;;;;;1030800;28;20502;-75
2023/09/05 00:02:51;;;;;;;2.28;1.55;;;;;;;;;;1028287;28;20106;-74
2023/09/05 00:03:21;;;;;;;2.35;1.83;;;;;;;;;;1030863;28;20026;-73
2023/09/05 00:03:51;;;;;;;2.15;1.10;;;;;;;;;;1025135;28;20051;-73
2023/09/05 00:04:21;;;;;;;4.32;1.77;;;;;;;;;;1026711;28;20018;-73
2023/09/05 00:04:55;;;;;;;1.80;1.20;;;;;;;;;;1025266;28;20018;-73
2023/09/05 00:05:25;;;;;;;2.55;1.80;;;;;;;;;;1023289;28;20003;-72
2023/09/05 00:05:59;;;;;;;2.63;1.50;;;;;;;;;;1027320;28;20010;-73
2023/09/05 00:06:30;;;;;;;2.70;1.63;;;;;;;;;;1031839;28;20462;-73
2023/09/05 00:07:00;;;;;;;2.72;1.30;;;;;;;;;;1034707;28;20026;-74
2023/09/05 00:07:31;;;;;;;2.05;1.33;;;;;;;;;;1035021;28;20107;-73
2023/09/05 00:08:01;;;;;;;2.10;1.33;;;;;;;;;;1033898;28;20019;-74
2023/09/05 00:08:32;;;;;;;4.05;1.40;;;;;;;;;;1035049;28;20018;-74
2023/09/05 00:09:05;;;;;;;2.75;1.83;;;;;;;;;;1031339;28;20011;-74
2023/09/05 00:09:36;;;;;;;2.05;1.40;;;;;;;;;;1027817;28;20026;-72
2023/09/05 00:10:07;;;;;;;5.20;1.60;;;;;;;;;;1030603;28;20015;-73
2023/09/05 00:10:37;;;;;;;3.30;1.70;;;;;;;;;;1026897;28;20037;-73
2023/09/05 00:11:08;;;;;;;2.85;1.70;;;;;;;;;;1018964;28;20503;-74
2023/09/05 00:11:38;;;;;;;1.25;1.15;;;;;;;;;;1022682;28;20023;-75
2023/09/05 00:12:09;;;;;;;3.40;1.65;;;;;;;;;;1034337;28;20022;-73
2023/09/05 00:12:42;;;;;;;2.70;1.60;;;;;;;;;;1034670;28;20032;-74
2023/09/05 00:13:14;;;;;;;2.20;1.73;;;;;;;;;;1034736;28;20385;-75
2023/09/05 00:13:44;;;;;;;4.53;1.90;;;;;;;;;;1030682;28;20010;-73
2023/09/05 00:14:18;;;;;;;2.80;1.77;;;;;;;;;;1026895;28;20110;-75
2023/09/05 00:14:48;;;;;;;3.45;1.90;;;;;;;;;;1026698;28;20473;-75
2023/09/05 00:15:18;;;;;;;3.58;1.30;;;;;;;;;;1027325;28;20094;-73
2023/09/05 00:15:48;;;;;;;4.47;1.58;;;;;;;;;;1030830;28;20070;-74
2023/09/05 00:16:19;;;;;;;2.58;1.83;;;;;;;;;;1031522;28;20069;-75
2023/09/05 00:16:49;;;;;;;3.88;1.70;;;;;;;;;;1033770;28;20383;-74
2023/09/05 00:17:19;;;;;;;3.33;1.90;;;;;;;;;;1031124;28;20144;-75
2023/09/05 00:17:49;;;;;;;3.20;1.65;;;;;;;;;;1032722;28;20042;-74
2023/09/05 00:18:20;;;;;;;2.10;1.52;;;;;;;;;;1035043;28;20748;-74
2023/09/05 00:18:50;;;;;;;2.22;1.38;;;;;;;;;;1033317;28;20033;-73
2023/09/05 00:19:20;;;;;;;1.80;1.45;;;;;;;;;;1026722;28;20849;-74
2023/09/05 00:19:51;;;;;;;4.55;1.98;;;;;;;;;;1023476;28;20019;-74
2023/09/05 00:20:21;;;;;;;1.95;1.50;;;;;;;;;;1026786;28;20018;-75
2023/09/05 00:20:54;;;;;;;2.15;1.70;;;;;;;;;;1018788;29;20507;-73
2023/09/05 00:21:25;;;;;;;2.13;1.58;;;;;;;;;;1019632;28;20038;-74
2023/09/05 00:21:58;;;;;;;2.33;1.67;;;;;;;;;;1020879;29;20046;-75
2023/09/05 00:22:28;;;;;;;3.90;2.13;;;;;;;;;;1024244;28;20518;-74
2023/09/05 00:22:58;;;;;;;4.22;1.58;;;;;;;;;;1030718;28;20023;-71
2023/09/05 00:23:28;;;;;;;5.05;1.52;;;;;;;;;;1030587;28;20159;-73
2023/09/05 00:24:18;;;;;;;2.38;1.77;;;;;;;;;;1034661;28;20164;-74
2023/09/05 00:24:49;;;;;;;2.00;1.55;;;;;;;;;;1033886;28;20586;-74
2023/09/05 00:25:19;;;;;;;3.50;2.08;;;;;;;;;;1033577;28;20084;-74
2023/09/05 00:25:49;;;;;;;2.95;1.80;;;;;;;;;;1034869;28;20021;-72
2023/09/05 00:26:20;;;;;;;2.25;1.70;;;;;;;;;;1030849;28;20021;-73
2023/09/05 00:26:50;;;;;;;2.75;1.50;;;;;;;;;;1029299;28;20462;-74
2023/09/05 00:27:20;;;;;;;2.45;1.77;;;;;;;;;;1030836;28;20046;-74
2023/09/05 00:27:50;;;;;;;2.17;1.60;;;;;;;;;;1030799;28;20030;-74
2023/09/05 00:28:22;;;;;;;2.00;1.40;;;;;;;;;;1032377;28;20057;-75
2023/09/05 00:28:52;;;;;;;3.10;1.70;;;;;;;;;;1030892;28;20102;-74
2023/09/05 00:29:23;;;;;;;3.10;1.40;;;;;;;;;;1030701;28;20835;-73
2023/09/05 00:29:54;;;;;;;2.85;1.70;;;;;;;;;;1028647;28;20010;-75
2023/09/05 00:30:26;;;;;;;3.05;1.85;;;;;;;;;;1030750;28;20492;-73
2023/09/05 00:30:57;;;;;;;2.60;1.35;;;;;;;;;;1026720;28;20026;-73
2023/09/05 00:31:27;;;;;;;3.28;1.67;;;;;;;;;;1027119;28;20097;-73
2023/09/05 00:32:00;;;;;;;3.15;1.65;;;;;;;;;;1028313;28;21326;-75
2023/09/05 00:32:32;;;;;;;2.58;1.58;;;;;;;;;;1027610;28;20097;-74
2023/09/05 00:33:03;;;;;;;5.35;1.35;;;;;;;;;;1034097;28;20069;-74
2023/09/05 00:33:33;;;;;;;3.05;2.10;;;;;;;;;;1034877;28;20136;-74
2023/09/05 00:34:03;;;;;;;3.42;1.85;;;;;;;;;;1031351;28;20034;-74
2023/09/05 00:34:34;;;;;;;2.45;1.63;;;;;;;;;;1022844;28;20062;-74
2023/09/05 00:35:05;;;;;;;2.85;1.60;;;;;;;;;;1026168;28;20023;-73
2023/09/05 00:35:35;;;;;;;2.47;1.42;;;;;;;;;;1030896;28;20024;-74
2023/09/05 00:36:05;;;;;;;2.72;1.80;;;;;;;;;;1027224;28;20122;-74
2023/09/05 00:36:35;;;;;;;3.03;1.58;;;;;;;;;;1031016;28;20034;-74
2023/09/05 00:37:07;;;;;;;3.60;2.17;;;;;;;;;;1030005;28;20555;-74
2023/09/05 00:37:37;;;;;;;3.00;1.67;;;;;;;;;;1030733;28;20080;-73
2023/09/05 00:38:08;;;;;;;3.20;1.70;;;;;;;;;;1030887;28;20077;-74
2023/09/05 00:38:38;;;;;;;2.35;1.42;;;;;;;;;;1034213;28;20053;-73
2023/09/05 00:39:08;;;;;;;3.70;1.85;;;;;;;;;;1030724;28;20064;-73
2023/09/05 00:39:40;;;;;;;2.83;1.92;;;;;;;;;;1025998;28;20023;-74
2023/09/05 00:40:10;;;;;;;2.30;1.50;;;;;;;;;;1030653;28;20068;-75
2023/09/05 00:40:41;;;;;;;2.33;1.63;;;;;;;;;;1026260;28;20144;-74
2023/09/05 00:41:11;;;;;;;3.95;1.85;;;;;;;;;;1027088;28;20022;-73
2023/09/05 00:41:42;;;;;;;3.85;1.63;;;;;;;;;;1030671;28;20140;-74
2023/09/05 00:42:13;;;;;;;4.43;1.88;;;;;;;;;;1034245;28;20022;-74
2023/09/05 00:42:43;;;;;;;4.43;1.80;;;;;;;;;;1031055;28;20025;-74
2023/09/05 00:43:14;;;;;;;2.90;1.83;;;;;;;;;;1031321;28;20390;-74
2023/09/05 00:43:48;;;;;;;2.60;1.60;;;;;;;;;;1032578;28;20018;-76
2023/09/05 00:44:18;;;;;;;2.28;1.67;;;;;;;;;;1032069;28;20022;-76
2023/09/05 00:44:49;;;;;;;2.63;1.50;;;;;;;;;;1033318;28;20021;-74
2023/09/05 00:45:20;;;;;;;3.53;1.80;;;;;;;;;;1029950;28;20022;-75
2023/09/05 00:45:52;;;;;;;2.47;1.77;;;;;;;;;;1029255;28;20028;-73
2023/09/05 00:46:22;;;;;;;3.20;2.03;;;;;;;;;;1026805;28;20034;-74
2023/09/05 00:46:54;;;;;;;3.33;1.83;;;;;;;;;;1021019;28;20510;-74
2023/09/05 00:47:27;;;;;;;2.65;1.70;;;;;;;;;;1023251;28;20106;-74
2023/09/05 00:47:57;;;;;;;2.22;1.73;;;;;;;;;;1020223;29;20039;-74
2023/09/05 00:48:28;;;;;;;3.03;1.90;;;;;;;;;;1017470;29;20115;-74
2023/09/05 00:49:02;;;;;;;4.22;1.95;;;;;;;;;;1019792;29;20036;-73
2023/09/05 00:49:39;;;;;;;2.50;1.60;;;;;;;;;;1023156;28;20027;-73
2023/09/05 00:50:10;;;;;;;3.13;1.95;;;;;;;;;;1026870;28;20019;-74
2023/09/05 00:50:41;;;;;;;4.43;2.00;;;;;;;;;;1031607;28;20018;-74
2023/09/05 00:51:12;;;;;;;2.28;1.70;;;;;;;;;;1030830;28;20026;-74
2023/09/05 00:51:43;;;;;;;2.78;1.75;;;;;;;;;;1032553;28;20014;-73
2023/09/05 00:52:13;;;;;;;2.88;1.90;;;;;;;;;;1024894;28;20058;-75
2023/09/05 00:52:46;;;;;;;3.70;1.90;;;;;;;;;;1022443;29;20468;-73
2023/09/05 00:53:16;;;;;;;6.20;1.70;;;;;;;;;;1019300;29;20047;-74
2023/09/05 00:53:47;;;;;;;3.10;1.80;;;;;;;;;;1021814;29;20039;-72
2023/09/05 00:54:17;;;;;;;2.38;1.70;;;;;;;;;;1023588;28;20011;-74
2023/09/05 00:54:51;;;;;;;3.63;1.65;;;;;;;;;;1027226;28;20035;-73
2023/09/05 00:55:21;;;;;;;4.97;1.90;;;;;;;;;;1027193;28;20049;-74
2023/09/05 00:55:51;;;;;;;3.83;1.80;;;;;;;;;;1020450;29;20721;-74
2023/09/05 00:56:22;;;;;;;2.97;1.60;;;;;;;;;;1021966;29;20030;-74
2023/09/05 00:56:52;;;;;;;2.40;1.60;;;;;;;;;;1018652;29;20015;-75
2023/09/05 00:57:24;;;;;;;2.70;1.90;;;;;;;;;;1020052;28;20906;-74
2023/09/05 00:57:55;;;;;;;2.45;1.55;;;;;;;;;;1025458;28;20077;-75
2023/09/05 00:58:25;;;;;;;2.90;1.95;;;;;;;;;;1027027;28;20027;-75
2023/09/05 00:58:56;;;;;;;4.78;2.10;;;;;;;;;;1033150;28;20022;-75
2023/09/05 00:59:26;;;;;;;2.75;1.80;;;;;;;;;;1033631;28;20131;-73
2023/09/05 00:59:56;;;;;;;5.88;2.03;;;;;;;;;;1031588;28;20072;-73
2023/09/05 01:00:26;;;;;;;2.70;1.75;;;;;;;;;;1026693;28;20061;-73
2023/09/05 01:00:57;;;;;;;5.90;1.98;;;;;;;;;;1025254;28;20027;-74
2023/09/05 01:01:28;;;;;;;3.55;1.80;;;;;;;;;;1026797;28;20030;-73
2023/09/05 01:01:58;;;;;;;2.60;1.90;;;;;;;;;;1028071;28;20065;-75
2023/09/05 01:02:29;;;;;;;2.33;1.50;;;;;;;;;;1026913;28;20049;-73
2023/09/05 01:02:59;;;;;;;5.20;1.70;;;;;;;;;;1025163;28;20085;-74
2023/09/05 01:03:29;;;;;;;2.35;1.60;;;;;;;;;;1022567;29;20377;-74
2023/09/05 01:03:59;;;;;;;2.17;1.40;;;;;;;;;;1018688;29;20094;-74
2023/09/05 01:04:32;;;;;;;4.22;2.03;;;;;;;;;;1022723;28;20391;-74
2023/09/05 01:05:03;;;;;;;2.25;1.48;;;;;;;;;;1026431;28;20031;-74
2023/09/05 01:05:33;;;;;;;2.85;1.83;;;;;;;;;;1026659;28;20579;-74
2023/09/05 01:06:04;;;;;;;1.88;1.60;;;;;;;;;;1025784;28;20089;-74
2023/09/05 01:06:53;;;;;;;4.85;2.00;;;;;;;;;;1022880;28;20011;-73
2023/09/05 01:07:32;;;;;;;2.70;1.88;;;;;;;;;;1029212;28;20686;-75
2023/09/05 01:08:04;;;;;;;2.90;2.05;;;;;;;;;;1029500;28;20034;-73
2023/09/05 01:08:41;;;;;;;2.50;1.60;;;;;;;;;;1030637;28;20022;-73
2023/09/05 01:09:30;;;;;;;2.60;1.85;;;;;;;;;;1022778;29;20055;-74
2023/09/05 01:10:10;;;;;;;5.70;2.22;;;;;;;;;;1025873;28;20018;-74
2023/09/05 01:11:11;;;;;;;1.95;1.48;;;;;;;;;;1026639;28;20019;-75
2023/09/05 01:11:41;;;;;;;3.83;1.70;;;;;;;;;;1025340;28;20054;-73
2023/09/05 01:12:12;;;;;;;2.63;1.73;;;;;;;;;;1030726;28;20022;-74
2023/09/05 01:12:42;;;;;;;2.83;1.88;;;;;;;;;;1034663;28;20477;-75
2023/09/05 01:13:12;;;;;;;3.13;2.00;;;;;;;;;;1034627;28;20046;-74
2023/09/05 01:13:42;;;;;;;2.80;1.75;;;;;;;;;;1033998;28;20034;-74
2023/09/05 01:14:14;;;;;;;1.98;1.52;;;;;;;;;;1030713;28;20030;-74
2023/09/05 01:14:44;;;;;;;4.40;1.83;;;;;;;;;;1031209;28;20470;-74
2023/09/05 01:15:14;;;;;;;2.83;1.85;;;;;;;;;;1030706;28;20042;-74
2023/09/05 01:15:44;;;;;;;2.20;1.60;;;;;;;;;;1030789;28;20409;-75
2023/09/05 01:16:15;;;;;;;2.72;1.52;;;;;;;;;;1031478;28;20022;-76
2023/09/05 01:16:46;;;;;;;2.85;1.60;;;;;;;;;;1033950;28;20036;-74
2023/09/05 01:17:16;;;;;;;3.33;1.88;;;;;;;;;;1030613;28;20688;-75
2023/09/05 01:17:53;;;;;;;2.22;1.50;;;;;;;;;;1026484;28;20041;-74
2023/09/05 01:18:24;;;;;;;2.97;1.73;;;;;;;;;;1026228;28;20098;-74
2023/09/05 01:18:54;;;;;;;3.08;1.98;;;;;;;;;;1026622;28;20029;-74
2023/09/05 01:19:27;;;;;;;2.67;1.70;;;;;;;;;;1023378;28;20102;-74
2023/09/05 01:19:58;;;;;;;2.35;1.70;;;;;;;;;;1023278;28;21049;-75
2023/09/05 01:20:35;;;;;;;3.97;1.95;;;;;;;;;;1022683;28;20015;-74
2023/09/05 01:21:21;;;;;;;3.08;2.03;;;;;;;;;;1026122;28;20030;-74
2023/09/05 01:22:16;;;;;;;4.38;1.85;;;;;;;;;;1027762;28;20534;-73
2023/09/05 01:22:49;;;;;;;2.90;1.90;;;;;;;;;;1030654;28;20014;-74
2023/09/05 01:23:20;;;;;;;3.55;1.85;;;;;;;;;;1028674;28;20105;-74
2023/09/05 01:23:53;;;;;;;3.35;1.75;;;;;;;;;;1025085;28;20077;-74
2023/09/05 01:24:23;;;;;;;3.83;2.30;;;;;;;;;;1022545;29;20023;-74
2023/09/05 01:24:54;;;;;;;2.35;1.70;;;;;;;;;;1024199;28;20087;-77
2023/09/05 01:25:24;;;;;;;2.78;1.90;;;;;;;;;;1030936;28;20025;-75
2023/09/05 01:25:54;;;;;;;2.63;1.77;;;;;;;;;;1034648;28;20501;-74
2023/09/05 01:26:25;;;;;;;2.15;1.60;;;;;;;;;;1034581;28;20030;-74
2023/09/05 01:26:55;;;;;;;2.25;1.63;;;;;;;;;;1024249;28;20046;-75
2023/09/05 01:27:26;;;;;;;2.30;1.75;;;;;;;;;;1026420;28;20763;-74
2023/09/05 01:27:59;;;;;;;2.53;1.67;;;;;;;;;;1022666;28;20092;-74
2023/09/05 01:28:31;;;;;;;2.20;1.63;;;;;;;;;;1019391;28;20058;-74
2023/09/05 01:29:01;;;;;;;2.33;1.75;;;;;;;;;;1023565;28;20033;-75
2023/09/05 01:29:35;;;;;;;1.85;1.60;;;;;;;;;;1018777;29;20076;-75
2023/09/05 01:30:05;;;;;;;2.95;1.75;;;;;;;;;;1023668;28;20008;-74
2023/09/05 01:30:36;;;;;;;3.00;2.00;;;;;;;;;;1030609;28;20021;-74
2023/09/05 01:31:06;;;;;;;3.30;2.00;;;;;;;;;;1023473;28;20026;-74
2023/09/05 01:31:36;;;;;;;2.15;1.58;;;;;;;;;;1026060;28;20019;-74
2023/09/05 01:32:08;;;;;;;2.15;1.55;;;;;;;;;;1026776;28;20022;-73
2023/09/05 01:32:38;;;;;;;4.35;1.75;;;;;;;;;;1022547;28;20113;-72
2023/09/05 01:33:11;;;;;;;2.47;1.65;;;;;;;;;;1018748;29;20024;-71
2023/09/05 01:33:41;;;;;;;3.92;1.90;;;;;;;;;;1022423;29;20027;-76
2023/09/05 01:34:11;;;;;;;3.65;2.00;;;;;;;;;;1022795;29;20027;-75
2023/09/05 01:34:42;;;;;;;2.40;2.20;;;;;;;;;;1021869;28;20150;-75
2023/09/05 01:35:12;;;;;;;6.22;2.22;;;;;;;;;;1026488;28;20089;-73
2023/09/05 01:35:42;;;;;;;3.25;1.80;;;;;;;;;;1030581;28;20765;-72
2023/09/05 01:36:12;;;;;;;2.13;1.63;;;;;;;;;;1034841;28;20018;-72
2023/09/05 01:36:43;;;;;;;3.30;2.28;;;;;;;;;;1036242;28;20067;-73
2023/09/05 01:37:15;;;;;;;2.25;2.00;;;;;;;;;;1038767;28;20025;-75
2023/09/05 01:37:45;;;;;;;2.72;1.88;;;;;;;;;;1035037;28;20111;-75
2023/09/05 01:38:15;;;;;;;3.78;1.75;;;;;;;;;;1030645;28;20080;-74
2023/09/05 01:38:45;;;;;;;3.78;2.00;;;;;;;;;;1029742;28;20019;-74
2023/09/05 01:39:16;;;;;;;2.47;1.80;;;;;;;;;;1018861;29;20094;-75
2023/09/05 01:39:46;;;;;;;2.08;1.55;;;;;;;;;;1015738;29;20023;-74
2023/09/05 01:40:16;;;;;;;3.45;2.13;;;;;;;;;;1026598;28;20015;-74
2023/09/05 01:40:47;;;;;;;3.30;1.67;;;;;;;;;;1026712;28;20045;-73
2023/09/05 01:41:17;;;;;;;2.13;1.60;;;;;;;;;;1026731;28;20010;-74
2023/09/05 01:41:48;;;;;;;2.67;1.73;;;;;;;;;;1031036;28;20033;-73
2023/09/05 01:42:19;;;;;;;1.83;1.63;;;;;;;;;;1030554;28;20080;-73
2023/09/05 01:42:49;;;;;;;3.40;2.00;;;;;;;;;;1025465;28;20069;-74
2023/09/05 01:43:19;;;;;;;3.65;2.35;;;;;;;;;;1026810;28;20010;-74
2023/09/05 01:43:49;;;;;;;2.05;1.70;;;;;;;;;;1028261;28;20010;-73
2023/09/05 01:44:20;;;;;;;4.70;2.60;;;;;;;;;;1032343;28;20007;-73
2023/09/05 01:44:50;;;;;;;3.00;1.67;;;;;;;;;;1033090;28;20437;-73
2023/09/05 01:45:21;;;;;;;2.88;1.75;;;;;;;;;;1032270;28;20016;-73
2023/09/05 01:45:51;;;;;;;2.20;1.52;;;;;;;;;;1030766;28;20011;-74
2023/09/05 01:46:22;;;;;;;3.38;2.03;;;;;;;;;;1026891;28;20007;-74
2023/09/05 01:46:52;;;;;;;2.42;1.48;;;;;;;;;;1031028;28;20022;-74
2023/09/05 01:47:22;;;;;;;3.95;1.98;;;;;;;;;;1031314;28;20025;-73
2023/09/05 01:47:52;;;;;;;2.30;1.98;;;;;;;;;;1035187;28;20088;-74
2023/09/05 01:48:23;;;;;;;3.35;2.05;;;;;;;;;;1035246;28;20065;-76
2023/09/05 01:48:53;;;;;;;2.80;1.70;;;;;;;;;;1032977;28;20100;-74
2023/09/05 01:49:23;;;;;;;7.22;1.80;;;;;;;;;;1032340;28;20014;-74
2023/09/05 01:49:54;;;;;;;9.90;1.77;;;;;;;;;;1032756;28;20061;-75
2023/09/05 01:50:24;;;;;;;3.45;1.70;;;;;;;;;;1034323;28;20006;-73
2023/09/05 01:50:54;;;;;;;2.42;1.60;;;;;;;;;;1030042;28;20026;-73
2023/09/05 01:51:25;;;;;;;3.30;1.75;;;;;;;;;;1030848;28;20097;-73
2023/09/05 01:51:55;;;;;;;2.97;1.83;;;;;;;;;;1035071;28;20010;-74
2023/09/05 01:52:25;;;;;;;3.35;2.30;;;;;;;;;;1034830;28;20014;-75
2023/09/05 01:52:56;;;;;;;2.70;1.60;;;;;;;;;;1032635;28;20014;-76
2023/09/05 01:53:26;;;;;;;2.83;1.67;;;;;;;;;;1030736;28;20026;-74
2023/09/05 01:53:56;;;;;;;2.10;1.65;;;;;;;;;;1030696;28;20011;-74
2023/09/05 01:54:27;;;;;;;3.35;1.80;;;;;;;;;;1034654;28;20580;-74
2023/09/05 01:54:58;;;;;;;2.67;1.58;;;;;;;;;;1028268;28;20577;-77
2023/09/05 01:55:28;;;;;;;2.50;1.75;;;;;;;;;;1027822;28;20011;-73
2023/09/05 01:56:00;;;;;;;2.13;1.80;;;;;;;;;;1030565;28;20050;-74
2023/09/05 01:56:31;;;;;;;5.57;2.25;;;;;;;;;;1031337;28;20010;-74
2023/09/05 01:57:01;;;;;;;3.35;1.80;;;;;;;;;;1031877;28;20025;-74
2023/09/05 01:57:32;;;;;;;3.88;1.90;;;;;;;;;;1034648;28;20076;-74
2023/09/05 01:58:02;;;;;;;2.97;1.65;;;;;;;;;;1027779;28;20049;-75
2023/09/05 01:58:32;;;;;;;2.85;1.65;;;;;;;;;;1031043;28;20022;-73
2023/09/05 01:59:03;;;;;;;4.00;1.85;;;;;;;;;;1026821;28;20038;-73
2023/09/05 01:59:33;;;;;;;2.58;1.90;;;;;;;;;;1025405;28;20118;-75
2023/09/05 02:00:03;;;;;;;2.22;1.60;;;;;;;;;;1027627;28;20089;-74
2023/09/05 02:00:34;;;;;;;1.95;1.42;;;;;;;;;;1027068;28;20026;-75
2023/09/05 02:01:04;;;;;;;2.78;1.67;;;;;;;;;;1027961;28;20010;-74
2023/09/05 02:01:34;;;;;;;3.88;1.70;;;;;;;;;;1034772;28;20092;-74
2023/09/05 02:02:04;;;;;;;3.20;1.70;;;;;;;;;;1031455;28;20006;-74
2023/09/05 02:02:35;;;;;;;3.97;2.05;;;;;;;;;;1026815;28;20038;-74
2023/09/05 02:03:05;;;;;;;3.30;1.50;;;;;;;;;;1030327;28;20108;-73
2023/09/05 02:03:35;;;;;;;4.57;2.03;;;;;;;;;;1033721;28;20029;-73
2023/09/05 02:04:06;;;;;;;4.32;1.73;;;;;;;;;;1031015;28;20049;-75
2023/09/05 02:04:36;;;;;;;3.03;1.95;;;;;;;;;;1034317;28;20166;-74
2023/09/05 02:05:06;;;;;;;2.65;2.05;;;;;;;;;;1034868;28;20024;-74
2023/09/05 02:05:37;;;;;;;5.22;2.33;;;;;;;;;;1031091;28;20681;-73
2023/09/05 02:06:07;;;;;;;2.88;1.77;;;;;;;;;;1029401;28;20023;-74
2023/09/05 02:06:37;;;;;;;2.80;1.70;;;;;;;;;;1027542;28;20519;-74
2023/09/05 02:07:09;;;;;;;3.90;2.30;;;;;;;;;;1027197;28;20452;-73
2023/09/05 02:07:39;;;;;;;3.35;1.85;;;;;;;;;;1026917;28;20030;-72
2023/09/05 02:08:09;;;;;;;2.28;1.73;;;;;;;;;;1026321;28;20078;-73
2023/09/05 02:08:40;;;;;;;2.58;1.80;;;;;;;;;;1030917;28;20576;-75
2023/09/05 02:09:10;;;;;;;16.27;3.88;;;;;;;;;;1023103;28;20189;-73
2023/09/05 02:09:40;;;;;;;3.35;1.77;;;;;;;;;;1028198;28;20027;-74
2023/09/05 02:10:10;;;;;;;2.92;1.80;;;;;;;;;;1030832;28;20042;-73
2023/09/05 02:10:41;;;;;;;3.50;1.52;;;;;;;;;;1030742;28;20026;-75
2023/09/05 02:11:12;;;;;;;3.00;1.90;;;;;;;;;;1034941;28;20022;-73
2023/09/05 02:11:42;;;;;;;2.95;2.22;;;;;;;;;;1030461;28;20647;-75
2023/09/05 02:12:12;;;;;;;2.25;1.55;;;;;;;;;;1026848;28;20434;-74
2023/09/05 02:12:43;;;;;;;1.60;1.30;;;;;;;;;;1031027;28;20018;-73
2023/09/05 02:13:14;;;;;;;2.55;1.90;;;;;;;;;;1030174;28;20493;-72
2023/09/05 02:13:44;;;;;;;4.93;1.92;;;;;;;;;;1030167;28;20010;-75
2023/09/05 02:14:14;;;;;;;3.30;2.08;;;;;;;;;;1022834;28;20043;-74
2023/09/05 02:14:47;;;;;;;3.05;1.60;;;;;;;;;;1022071;29;20061;-74
2023/09/05 02:15:17;;;;;;;2.67;1.70;;;;;;;;;;1023210;28;20398;-73
2023/09/05 02:15:47;;;;;;;3.10;2.08;;;;;;;;;;1023147;28;20026;-73
2023/09/05 02:16:21;;;;;;;4.28;1.88;;;;;;;;;;1030364;28;20010;-76
2023/09/05 02:16:52;;;;;;;2.72;1.95;;;;;;;;;;1029379;28;20026;-74
2023/09/05 02:17:22;;;;;;;3.35;2.22;;;;;;;;;;1027260;28;20490;-74
2023/09/05 02:17:55;;;;;;;4.47;1.75;;;;;;;;;;1027642;28;20046;-74
2023/09/05 02:18:25;;;;;;;3.40;2.30;;;;;;;;;;1030624;28;20018;-73
2023/09/05 02:18:56;;;;;;;2.78;2.00;;;;;;;;;;1030831;28;20019;-74
2023/09/05 02:19:28;;;;;;;3.63;2.17;;;;;;;;;;1031386;28;20033;-74
2023/09/05 02:19:58;;;;;;;2.45;1.70;;;;;;;;;;1034209;28;20092;-73
2023/09/05 02:20:29;;;;;;;3.55;1.85;;;;;;;;;;1030693;28;20084;-73
2023/09/05 02:21:00;;;;;;;2.97;2.00;;;;;;;;;;1028290;28;20018;-72
2023/09/05 02:21:32;;;;;;;2.78;1.85;;;;;;;;;;1029014;28;20047;-74
2023/09/05 02:22:02;;;;;;;2.88;2.03;;;;;;;;;;1024283;28;20121;-72
2023/09/05 02:22:32;;;;;;;4.05;2.08;;;;;;;;;;1027079;28;20096;-75
2023/09/05 02:23:03;;;;;;;4.10;2.20;;;;;;;;;;1029134;28;20045;-74
2023/09/05 02:23:33;;;;;;;2.63;1.85;;;;;;;;;;1035237;28;20045;-73
2023/09/05 02:24:03;;;;;;;2.60;2.00;;;;;;;;;;1039160;28;20021;-73
2023/09/05 02:24:34;;;;;;;2.55;1.60;;;;;;;;;;1038432;28;20025;-73
2023/09/05 02:25:04;;;;;;;3.17;2.20;;;;;;;;;;1038136;28;20047;-74
2023/09/05 02:25:35;;;;;;;3.65;1.98;;;;;;;;;;1035396;28;20018;-73
2023/09/05 02:26:05;;;;;;;3.20;2.22;;;;;;;;;;1031944;28;20011;-72
2023/09/05 02:26:37;;;;;;;1.65;1.50;;;;;;;;;;1034887;28;20026;-74
2023/09/05 02:27:07;;;;;;;2.58;1.83;;;;;;;;;;1031038;28;20019;-73
2023/09/05 02:27:37;;;;;;;4.20;2.20;;;;;;;;;;1027144;28;20023;-72
2023/09/05 02:28:08;;;;;;;3.17;1.90;;;;;;;;;;1019326;29;20012;-74
2023/09/05 02:28:38;;;;;;;3.78;2.30;;;;;;;;;;1023183;28;20101;-75
2023/09/05 02:29:08;;;;;;;2.35;1.70;;;;;;;;;;1027166;28;20007;-73
2023/09/05 02:29:39;;;;;;;2.55;1.80;;;;;;;;;;1030216;28;20026;-73
2023/09/05 02:30:09;;;;;;;2.75;1.95;;;;;;;;;;1030733;28;20014;-73
2023/09/05 02:30:40;;;;;;;2.83;1.83;;;;;;;;;;1031054;28;20109;-73
2023/09/05 02:31:11;;;;;;;3.20;1.92;;;;;;;;;;1027061;28;20022;-74
2023/09/05 02:31:41;;;;;;;1.98;1.77;;;;;;;;;;1027035;28;20019;-73
2023/09/05 02:32:11;;;;;;;2.90;2.13;;;;;;;;;;1027255;28;20049;-73
2023/09/05 02:32:43;;;;;;;2.67;1.90;;;;;;;;;;1027066;28;20023;-73
2023/09/05 02:33:13;;;;;;;4.03;1.88;;;;;;;;;;1031488;28;20022;-73
2023/09/05 02:33:44;;;;;;;2.97;1.98;;;;;;;;;;1034440;28;20105;-73
2023/09/05 02:34:14;;;;;;;2.47;1.73;;;;;;;;;;1031505;28;20109;-73
2023/09/05 02:34:49;;;;;;;2.35;2.03;;;;;;;;;;1031218;28;20026;-74
2023/09/05 02:35:22;;;;;;;2.65;1.67;;;;;;;;;;1029625;28;20011;-73
2023/09/05 02:35:53;;;;;;;3.72;1.60;;;;;;;;;;1029387;28;20122;-73
2023/09/05 02:36:23;;;;;;;3.83;1.83;;;;;;;;;;1019128;29;20027;-73
2023/09/05 02:36:54;;;;;;;3.55;1.80;;;;;;;;;;1021776;28;20118;-73
2023/09/05 02:37:24;;;;;;;2.28;1.90;;;;;;;;;;1031151;28;20125;-75
2023/09/05 02:37:55;;;;;;;2.80;2.20;;;;;;;;;;1031158;28;20515;-75
2023/09/05 02:38:25;;;;;;;2.78;1.98;;;;;;;;;;1036025;28;20022;-72
2023/09/05 02:38:55;;;;;;;3.08;2.03;;;;;;;;;;1039067;28;20031;-73
2023/09/05 02:39:26;;;;;;;3.17;2.20;;;;;;;;;;1030871;28;20026;-74
2023/09/05 02:39:56;;;;;;;2.60;2.00;;;;;;;;;;1024303;28;20066;-75
2023/09/05 02:40:27;;;;;;;3.20;2.00;;;;;;;;;;1022222;28;20538;-74
2023/09/05 02:40:57;;;;;;;2.80;1.63;;;;;;;;;;1023202;28;20034;-73
2023/09/05 02:41:27;;;;;;;3.13;1.95;;;;;;;;;;1027048;28;20031;-74
2023/09/05 02:41:58;;;;;;;3.30;1.73;;;;;;;;;;1031108;28;20130;-74
2023/09/05 02:42:29;;;;;;;4.45;2.38;;;;;;;;;;1031249;28;20122;-74
2023/09/05 02:43:00;;;;;;;3.80;2.30;;;;;;;;;;1030252;28;20030;-75
2023/09/05 02:43:31;;;;;;;2.42;1.90;;;;;;;;;;1031616;28;20106;-73
2023/09/05 02:44:02;;;;;;;3.22;2.75;;;;;;;;;;1028521;28;20010;-72
2023/09/05 02:44:32;;;;;;;3.33;2.00;;;;;;;;;;1026335;28;20007;-73
2023/09/05 02:45:02;;;;;;;2.38;1.88;;;;;;;;;;1022268;29;20098;-73
2023/09/05 02:45:33;;;;;;;2.92;2.00;;;;;;;;;;1022202;29;20427;-75
2023/09/05 02:46:03;;;;;;;3.60;2.10;;;;;;;;;;1022056;28;20019;-73
2023/09/05 02:46:33;;;;;;;5.22;2.55;;;;;;;;;;1027197;28;20015;-74
2023/09/05 02:47:03;;;;;;;4.32;1.92;;;;;;;;;;1026296;28;20015;-73
2023/09/05 02:47:33;;;;;;;4.82;2.50;;;;;;;;;;1027311;28;20015;-74
2023/09/05 02:48:04;;;;;;;3.30;2.03;;;;;;;;;;1024345;28;20090;-72
2023/09/05 02:48:38;;;;;;;4.65;2.13;;;;;;;;;;1023462;28;20483;-74
2023/09/05 02:49:08;;;;;;;2.63;2.00;;;;;;;;;;1023434;28;20066;-73
2023/09/05 02:49:38;;;;;;;2.70;2.08;;;;;;;;;;1027027;28;20466;-74
2023/09/05 02:50:09;;;;;;;2.88;1.92;;;;;;;;;;1031223;28;20002;-74
2023/09/05 02:50:39;;;;;;;5.55;2.03;;;;;;;;;;1030214;28;20085;-75
2023/09/05 02:51:10;;;;;;;2.75;1.60;;;;;;;;;;1031163;28;20006;-73
2023/09/05 02:51:40;;;;;;;4.90;2.58;;;;;;;;;;1034766;28;20493;-74
2023/09/05 02:52:12;;;;;;;2.45;1.92;;;;;;;;;;1031204;28;20050;-76
2023/09/05 02:52:42;;;;;;;3.40;1.85;;;;;;;;;;1034918;28;20072;-73
2023/09/05 02:53:12;;;;;;;3.42;2.10;;;;;;;;;;1035001;28;20025;-73
2023/09/05 02:53:42;;;;;;;2.63;1.83;;;;;;;;;;1028752;28;20018;-73
2023/09/05 02:54:13;;;;;;;3.53;1.98;;;;;;;;;;1023254;28;20518;-75
2023/09/05 02:54:43;;;;;;;8.27;2.15;;;;;;;;;;1027062;28;20019;-75
2023/09/05 02:55:13;;;;;;;3.47;2.15;;;;;;;;;;1027326;28;20018;-73
2023/09/05 02:55:44;;;;;;;4.57;2.13;;;;;;;;;;1028627;28;20026;-73
2023/09/05 02:56:16;;;;;;;2.42;1.80;;;;;;;;;;1035093;28;20140;-74
2023/09/05 02:56:46;;;;;;;3.97;2.20;;;;;;;;;;1031005;28;20432;-75
2023/09/05 02:57:16;;;;;;;5.53;2.10;;;;;;;;;;1027110;28;20018;-74
2023/09/05 02:57:46;;;;;;;2.42;1.50;;;;;;;;;;1023032;28;20079;-74
2023/09/05 02:58:17;;;;;;;2.97;1.83;;;;;;;;;;1027255;28;20023;-74
2023/09/05 02:58:47;;;;;;;4.38;2.10;;;;;;;;;;1031063;28;20109;-76
2023/09/05 02:59:18;;;;;;;4.45;2.00;;;;;;;;;;1032204;28;20019;-74
2023/09/05 02:59:52;;;;;;;6.60;2.17;;;;;;;;;;1034502;28;20101;-74
2023/09/05 03:00:23;;;;;;;4.28;2.08;;;;;;;;;;1031027;28;20110;-73
2023/09/05 03:00:59;;;;;;;2.95;2.20;;;;;;;;;;1030938;28;20497;-74
2023/09/05 03:01:29;;;;;;;3.08;2.08;;;;;;;;;;1032544;28;20080;-74
2023/09/05 03:01:59;;;;;;;3.45;2.28;;;;;;;;;;1029178;28;20660;-73
2023/09/05 03:02:30;;;;;;;4.35;2.40;;;;;;;;;;1028148;28;20049;-73
2023/09/05 03:03:00;;;;;;;3.65;2.47;;;;;;;;;;1024234;28;20024;-74
2023/09/05 03:03:31;;;;;;;2.35;2.15;;;;;;;;;;1023208;28;20490;-74
2023/09/05 03:04:01;;;;;;;2.60;1.80;;;;;;;;;;1019404;29;20015;-75
2023/09/05 03:04:32;;;;;;;3.72;2.00;;;;;;;;;;1020717;28;20499;-75
2023/09/05 03:05:03;;;;;;;5.72;2.05;;;;;;;;;;1027075;28;20098;-73
2023/09/05 03:05:34;;;;;;;2.80;2.00;;;;;;;;;;1023577;28;20066;-74
2023/09/05 03:06:14;;;;;;;2.95;2.10;;;;;;;;;;1025943;28;20085;-73
2023/09/05 03:06:44;;;;;;;3.35;2.30;;;;;;;;;;1023012;29;20367;-74
2023/09/05 03:07:15;;;;;;;4.95;2.10;;;;;;;;;;1024526;28;20027;-73